Time;durP1;ratioP1;P1;durP2;ratioP2;P2;SDS_P1;SDS_P2;PMS_P1;PMS_P2;Temp;Humidity;BMP_temperature;BMP_pressure;BME280_temperature;BME280_humidity;BME280_pressure;Samples;Min_cycle;Max_cycle;Signal;HPM_P1;HPM_P2
2022/06/27 00:02:01;;;;;;;5.00;3.77;;;;;;;;;;4982543;28;20215;-75
2022/06/27 00:04:28;;;;;;;4.40;2.93;;;;;;;;;;4991432;28;20223;-74
2022/06/27 00:06:55;;;;;;;5.57;3.57;;;;;;;;;;4990060;28;20204;-74
2022/06/27 00:09:22;;;;;;;5.60;3.33;;;;;;;;;;4989128;28;20672;-74
2022/06/27 00:11:51;;;;;;;5.00;3.53;;;;;;;;;;4989766;28;20208;-75
2022/06/27 00:14:18;;;;;;;5.50;3.83;;;;;;;;;;4989618;28;20228;-75
2022/06/27 00:16:45;;;;;;;8.57;4.23;;;;;;;;;;4986608;28;20558;-75
2022/06/27 00:19:12;;;;;;;6.67;4.20;;;;;;;;;;4986557;28;20213;-74
2022/06/27 00:21:39;;;;;;;4.90;3.67;;;;;;;;;;4987568;28;20201;-76
2022/06/27 00:24:07;;;;;;;6.40;3.30;;;;;;;;;;4983769;28;20220;-75
2022/06/27 00:26:34;;;;;;;2.80;2.40;;;;;;;;;;4989207;28;20295;-75
2022/06/27 00:29:02;;;;;;;4.40;2.33;;;;;;;;;;4985771;28;20888;-75
2022/06/27 00:31:29;;;;;;;5.43;2.67;;;;;;;;;;4987676;28;20299;-76
2022/06/27 00:33:57;;;;;;;6.63;2.23;;;;;;;;;;4985893;28;20228;-74
2022/06/27 00:36:24;;;;;;;4.50;2.50;;;;;;;;;;4989081;28;20330;-76
2022/06/27 00:38:51;;;;;;;7.87;2.87;;;;;;;;;;4987235;28;20230;-76
2022/06/27 00:41:18;;;;;;;5.47;2.87;;;;;;;;;;4988046;28;20212;-76
2022/06/27 00:43:46;;;;;;;5.43;2.93;;;;;;;;;;4985463;28;20320;-76
2022/06/27 00:46:14;;;;;;;4.20;2.93;;;;;;;;;;4988138;28;20220;-75
2022/06/27 00:48:41;;;;;;;5.27;2.90;;;;;;;;;;4987581;28;20683;-75
2022/06/27 00:51:11;;;;;;;5.50;2.70;;;;;;;;;;4985809;28;20627;-75
2022/06/27 00:53:39;;;;;;;3.10;2.27;;;;;;;;;;4986932;28;20773;-75
2022/06/27 00:56:07;;;;;;;5.07;3.00;;;;;;;;;;4987450;28;20675;-75
2022/06/27 00:58:34;;;;;;;5.07;2.90;;;;;;;;;;4988460;28;20297;-75
2022/06/27 01:01:01;;;;;;;6.97;2.67;;;;;;;;;;4985145;28;20201;-75
2022/06/27 01:03:29;;;;;;;4.67;2.70;;;;;;;;;;4988320;28;20211;-75
2022/06/27 01:05:57;;;;;;;7.70;2.73;;;;;;;;;;4987121;28;20771;-75
2022/06/27 01:08:25;;;;;;;7.10;2.90;;;;;;;;;;4984783;28;20671;-75
2022/06/27 01:10:53;;;;;;;6.80;3.10;;;;;;;;;;4985015;28;20533;-78
2022/06/27 01:13:21;;;;;;;4.17;2.47;;;;;;;;;;4987595;28;20698;-74
2022/06/27 01:15:48;;;;;;;4.07;2.70;;;;;;;;;;4986593;28;20212;-75
2022/06/27 01:18:16;;;;;;;5.10;2.97;;;;;;;;;;4985568;28;20208;-75
2022/06/27 01:20:45;;;;;;;6.73;3.40;;;;;;;;;;4987902;28;20706;-76
2022/06/27 01:23:14;;;;;;;8.13;3.60;;;;;;;;;;4986185;28;20214;-75
2022/06/27 01:25:41;;;;;;;7.23;2.97;;;;;;;;;;4989164;28;20705;-75
2022/06/27 01:28:10;;;;;;;5.90;3.20;;;;;;;;;;4987280;28;20222;-74
2022/06/27 01:30:37;;;;;;;5.00;2.67;;;;;;;;;;4987566;28;20200;-74
2022/06/27 01:33:04;;;;;;;4.33;2.83;;;;;;;;;;4988148;28;20682;-74
2022/06/27 01:35:31;;;;;;;4.80;2.97;;;;;;;;;;4986073;28;20733;-76
2022/06/27 01:37:59;;;;;;;3.63;2.97;;;;;;;;;;4987171;28;20244;-75
2022/06/27 01:40:27;;;;;;;6.00;2.83;;;;;;;;;;4986738;28;20331;-75
2022/06/27 01:42:55;;;;;;;3.33;2.30;;;;;;;;;;4988566;28;20213;-77
2022/06/27 01:45:22;;;;;;;3.73;2.63;;;;;;;;;;4985075;28;20316;-75
2022/06/27 01:47:49;;;;;;;4.23;2.90;;;;;;;;;;4988816;28;20216;-75
2022/06/27 01:50:17;;;;;;;3.70;2.60;;;;;;;;;;4985714;28;20328;-75
2022/06/27 01:52:45;;;;;;;10.03;2.90;;;;;;;;;;4988733;28;20297;-75
2022/06/27 01:55:12;;;;;;;6.63;2.90;;;;;;;;;;4982742;28;20261;-77
2022/06/27 01:57:41;;;;;;;4.97;2.77;;;;;;;;;;4986459;28;20208;-74
2022/06/27 02:00:09;;;;;;;3.90;2.60;;;;;;;;;;4986539;28;20208;-75
2022/06/27 02:02:36;;;;;;;5.30;3.20;;;;;;;;;;4987009;28;20289;-75
2022/06/27 02:05:04;;;;;;;6.60;3.07;;;;;;;;;;4987232;28;20315;-76
2022/06/27 02:07:31;;;;;;;4.40;2.90;;;;;;;;;;4986918;28;20215;-74
2022/06/27 02:09:58;;;;;;;8.07;2.80;;;;;;;;;;4986088;28;20205;-79
2022/06/27 02:12:28;;;;;;;3.63;2.53;;;;;;;;;;4985386;28;20201;-77
2022/06/27 02:14:57;;;;;;;6.17;3.00;;;;;;;;;;4983706;28;20227;-74
2022/06/27 02:17:24;;;;;;;4.47;2.77;;;;;;;;;;4987018;28;20648;-75
2022/06/27 02:19:52;;;;;;;4.67;2.90;;;;;;;;;;4987832;28;20302;-75
2022/06/27 02:22:19;;;;;;;7.43;2.97;;;;;;;;;;4987186;28;20208;-74
2022/06/27 02:24:46;;;;;;;4.23;2.70;;;;;;;;;;4984775;28;20588;-75
2022/06/27 02:27:14;;;;;;;3.63;2.43;;;;;;;;;;4984836;28;20210;-75
2022/06/27 02:29:43;;;;;;;6.60;2.53;;;;;;;;;;4984892;28;20304;-75
2022/06/27 02:32:12;;;;;;;4.17;2.10;;;;;;;;;;4984314;28;20212;-76
2022/06/27 02:34:40;;;;;;;3.63;2.87;;;;;;;;;;4987665;28;20225;-75
2022/06/27 02:37:07;;;;;;;4.47;3.07;;;;;;;;;;4987589;28;20205;-74
2022/06/27 02:39:37;;;;;;;5.20;2.90;;;;;;;;;;4983510;28;20311;-74
2022/06/27 02:42:04;;;;;;;4.07;2.73;;;;;;;;;;4986798;28;20209;-74
2022/06/27 02:44:32;;;;;;;3.97;2.87;;;;;;;;;;4988565;28;20270;-75
2022/06/27 02:46:59;;;;;;;4.60;3.00;;;;;;;;;;4987119;28;20398;-74
2022/06/27 02:49:28;;;;;;;4.47;2.97;;;;;;;;;;4991251;28;20207;-73
2022/06/27 02:51:57;;;;;;;3.63;2.90;;;;;;;;;;4989569;28;20220;-73
2022/06/27 02:54:28;;;;;;;5.60;3.23;;;;;;;;;;4986011;28;20240;-75
2022/06/27 02:56:58;;;;;;;7.07;3.30;;;;;;;;;;4988376;28;20201;-74
2022/06/27 02:59:29;;;;;;;5.47;3.20;;;;;;;;;;4985975;28;20215;-74
2022/06/27 03:01:58;;;;;;;5.00;2.87;;;;;;;;;;4990137;28;20200;-75
2022/06/27 03:04:25;;;;;;;4.37;3.17;;;;;;;;;;4984438;28;20303;-74
2022/06/27 03:06:53;;;;;;;3.43;2.90;;;;;;;;;;4987775;28;20701;-74
2022/06/27 03:09:21;;;;;;;3.10;2.80;;;;;;;;;;4985108;28;20216;-74
2022/06/27 03:11:48;;;;;;;4.50;3.03;;;;;;;;;;4985019;28;20666;-74
2022/06/27 03:14:16;;;;;;;5.07;3.10;;;;;;;;;;4983703;28;20236;-74
2022/06/27 03:16:43;;;;;;;3.70;2.90;;;;;;;;;;4988753;28;20752;-74
2022/06/27 03:19:10;;;;;;;4.33;2.90;;;;;;;;;;4986758;28;20658;-74
2022/06/27 03:21:37;;;;;;;4.50;3.30;;;;;;;;;;4986848;28;20568;-74
2022/06/27 03:24:06;;;;;;;3.93;2.93;;;;;;;;;;4985541;28;20753;-74
2022/06/27 03:26:34;;;;;;;6.53;3.00;;;;;;;;;;4984731;28;20581;-74
2022/06/27 03:29:02;;;;;;;4.40;3.20;;;;;;;;;;4988211;28;20214;-74
2022/06/27 03:31:29;;;;;;;6.07;3.23;;;;;;;;;;4988514;28;20232;-74
2022/06/27 03:33:56;;;;;;;8.07;3.53;;;;;;;;;;4987132;28;20278;-74
2022/06/27 03:36:24;;;;;;;9.33;3.80;;;;;;;;;;4989042;28;20235;-74
2022/06/27 03:38:51;;;;;;;5.30;3.30;;;;;;;;;;4992368;28;20204;-74
2022/06/27 03:41:20;;;;;;;5.30;3.67;;;;;;;;;;4989751;28;20209;-74
2022/06/27 03:43:47;;;;;;;10.57;3.70;;;;;;;;;;4993139;28;20250;-74
2022/06/27 03:46:14;;;;;;;9.27;4.20;;;;;;;;;;4993740;28;20197;-74
2022/06/27 03:51:42;;;;;;;7.27;3.90;;;;;;;;;;4954339;28;20205;-73
2022/06/27 03:54:10;;;;;;;7.27;4.27;;;;;;;;;;4954757;28;20748;-73
2022/06/27 03:56:38;;;;;;;7.03;3.83;;;;;;;;;;4971546;28;20663;-74
2022/06/27 03:59:05;;;;;;;5.20;3.73;;;;;;;;;;4990378;28;20447;-75
2022/06/27 04:01:32;;;;;;;7.83;4.10;;;;;;;;;;4990888;28;20582;-74
2022/06/27 04:04:00;;;;;;;5.70;4.00;;;;;;;;;;4989237;28;20237;-75
2022/06/27 04:06:27;;;;;;;4.73;3.70;;;;;;;;;;4987928;28;20296;-74
2022/06/27 04:08:54;;;;;;;9.77;3.67;;;;;;;;;;4988621;28;20345;-74
2022/06/27 04:11:21;;;;;;;5.37;3.27;;;;;;;;;;4993326;28;20209;-74
2022/06/27 04:13:50;;;;;;;6.53;3.40;;;;;;;;;;4989030;28;20229;-75
2022/06/27 04:16:17;;;;;;;6.70;3.07;;;;;;;;;;4991231;28;20325;-74
2022/06/27 04:18:44;;;;;;;4.57;3.47;;;;;;;;;;4989846;28;20301;-74
2022/06/27 04:21:11;;;;;;;8.13;3.90;;;;;;;;;;4992225;28;20201;-74
2022/06/27 04:23:40;;;;;;;5.07;3.70;;;;;;;;;;4991919;28;20307;-74
2022/06/27 04:26:07;;;;;;;5.20;3.50;;;;;;;;;;4990142;28;20728;-74
2022/06/27 04:28:35;;;;;;;6.73;4.07;;;;;;;;;;4988997;28;20292;-74
2022/06/27 04:31:04;;;;;;;6.27;3.93;;;;;;;;;;4989400;28;20207;-74
2022/06/27 04:33:31;;;;;;;5.50;4.03;;;;;;;;;;4990408;28;20479;-74
2022/06/27 04:36:00;;;;;;;9.73;4.30;;;;;;;;;;4988707;28;20239;-74
2022/06/27 04:38:27;;;;;;;5.63;4.00;;;;;;;;;;4991644;28;20255;-74
2022/06/27 04:40:54;;;;;;;7.60;3.67;;;;;;;;;;4991333;28;20262;-74
2022/06/27 04:43:22;;;;;;;7.43;3.20;;;;;;;;;;4993925;28;20578;-73
2022/06/27 04:45:52;;;;;;;4.77;3.07;;;;;;;;;;4990861;28;20211;-74
2022/06/27 04:48:21;;;;;;;6.63;3.53;;;;;;;;;;4990798;28;20214;-74
2022/06/27 04:50:49;;;;;;;6.10;3.37;;;;;;;;;;4987471;28;20672;-74
2022/06/27 04:53:18;;;;;;;3.80;3.10;;;;;;;;;;4991174;23;20557;31
2022/06/27 04:55:45;;;;;;;6.70;3.10;;;;;;;;;;4947076;28;20693;-73
2022/06/27 04:58:12;;;;;;;5.47;3.00;;;;;;;;;;4949405;28;20238;-74
2022/06/27 05:00:39;;;;;;;4.93;2.67;;;;;;;;;;4948001;28;20630;-74
2022/06/27 05:03:07;;;;;;;3.53;2.53;;;;;;;;;;4946824;28;20202;-74
2022/06/27 05:05:35;;;;;;;4.70;2.83;;;;;;;;;;4945169;28;20222;-74
2022/06/27 05:08:02;;;;;;;3.20;2.90;;;;;;;;;;4947161;28;20211;-75
2022/06/27 05:10:30;;;;;;;4.57;2.60;;;;;;;;;;4946410;28;20668;-76
2022/06/27 05:12:57;;;;;;;4.77;3.00;;;;;;;;;;4945853;28;20575;-75
2022/06/27 05:15:24;;;;;;;4.90;3.50;;;;;;;;;;4941000;28;20709;-75
2022/06/27 05:17:51;;;;;;;4.60;2.90;;;;;;;;;;4943679;28;20209;-75
2022/06/27 05:20:18;;;;;;;6.67;2.90;;;;;;;;;;4944978;28;20206;-74
2022/06/27 05:22:47;;;;;;;5.97;3.60;;;;;;;;;;4945944;28;20688;-75
2022/06/27 05:25:14;;;;;;;4.17;3.10;;;;;;;;;;4945144;28;20214;-75
2022/06/27 05:27:41;;;;;;;7.30;3.27;;;;;;;;;;4941926;28;20728;-75
2022/06/27 05:30:09;;;;;;;4.70;3.30;;;;;;;;;;4941686;28;20214;-74
2022/06/27 05:32:36;;;;;;;5.47;2.93;;;;;;;;;;4943177;28;20203;-74
2022/06/27 05:35:03;;;;;;;6.10;3.03;;;;;;;;;;4946652;28;20223;-75
2022/06/27 05:37:31;;;;;;;4.17;3.27;;;;;;;;;;4948214;28;20206;-75
2022/06/27 05:40:00;;;;;;;3.93;3.00;;;;;;;;;;4946828;28;20218;-75
2022/06/27 05:42:32;;;;;;;4.57;3.43;;;;;;;;;;4943578;28;20634;-75
2022/06/27 05:45:00;;;;;;;5.90;3.23;;;;;;;;;;4945751;28;20223;-75
2022/06/27 05:47:29;;;;;;;3.67;2.93;;;;;;;;;;4942823;28;20214;-75
2022/06/27 05:49:56;;;;;;;5.30;3.37;;;;;;;;;;4943469;28;20210;-75
2022/06/27 05:52:23;;;;;;;4.23;3.17;;;;;;;;;;4942741;28;20239;-74
2022/06/27 05:54:51;;;;;;;4.70;2.93;;;;;;;;;;4945992;28;20294;-74
2022/06/27 05:57:20;;;;;;;4.47;3.40;;;;;;;;;;4943335;28;20617;-74
2022/06/27 05:59:47;;;;;;;3.40;2.90;;;;;;;;;;4945163;28;20207;-75
2022/06/27 06:02:15;;;;;;;3.93;2.93;;;;;;;;;;4946900;28;20346;-74
2022/06/27 06:04:42;;;;;;;7.27;3.20;;;;;;;;;;4943666;28;20353;-75
2022/06/27 06:07:09;;;;;;;4.17;3.10;;;;;;;;;;4943042;28;20281;-75
2022/06/27 06:09:37;;;;;;;3.87;3.03;;;;;;;;;;4947595;28;20299;-74
2022/06/27 06:12:06;;;;;;;7.00;3.40;;;;;;;;;;4945613;28;20202;-74
2022/06/27 06:14:35;;;;;;;4.93;3.13;;;;;;;;;;4943140;28;20630;-74
2022/06/27 06:17:03;;;;;;;5.77;3.27;;;;;;;;;;4945893;28;20320;-74
2022/06/27 06:19:30;;;;;;;3.57;2.83;;;;;;;;;;4943636;28;20203;-74
2022/06/27 06:21:57;;;;;;;5.37;2.97;;;;;;;;;;4943062;28;20261;-74
2022/06/27 06:24:25;;;;;;;4.17;2.90;;;;;;;;;;4943665;28;20222;-74
2022/06/27 06:26:53;;;;;;;4.23;2.77;;;;;;;;;;4946354;28;20297;-74
2022/06/27 06:29:23;;;;;;;4.43;3.10;;;;;;;;;;4944438;28;20206;-73
2022/06/27 06:31:51;;;;;;;5.10;2.43;;;;;;;;;;4935541;28;20214;-74
2022/06/27 06:34:18;;;;;;;5.37;3.00;;;;;;;;;;4946636;28;20222;-74
2022/06/27 06:36:46;;;;;;;3.53;2.90;;;;;;;;;;4943602;28;20225;-74
2022/06/27 06:39:14;;;;;;;4.80;2.73;;;;;;;;;;4944090;28;20240;-74
2022/06/27 06:41:41;;;;;;;4.70;3.17;;;;;;;;;;4941794;28;20218;-74
2022/06/27 06:44:09;;;;;;;4.03;3.10;;;;;;;;;;4942987;28;20230;-75
2022/06/27 06:46:36;;;;;;;5.60;3.20;;;;;;;;;;4944421;28;20199;-74
2022/06/27 06:49:05;;;;;;;4.00;2.90;;;;;;;;;;4941632;28;20760;-74
2022/06/27 06:51:34;;;;;;;4.07;2.93;;;;;;;;;;4942210;28;20214;-75
2022/06/27 06:54:04;;;;;;;5.60;3.47;;;;;;;;;;4944911;28;20241;-75
2022/06/27 06:56:31;;;;;;;3.40;2.80;;;;;;;;;;4943971;28;20258;-74
2022/06/27 06:58:59;;;;;;;4.60;3.13;;;;;;;;;;4945900;28;20596;-75
2022/06/27 07:01:27;;;;;;;4.17;3.20;;;;;;;;;;4942839;28;20207;-74
2022/06/27 07:03:54;;;;;;;5.00;3.20;;;;;;;;;;4950447;28;20230;-75
2022/06/27 07:06:24;;;;;;;3.73;3.13;;;;;;;;;;4945240;28;20234;-74
2022/06/27 07:08:53;;;;;;;7.23;3.43;;;;;;;;;;4947634;28;20213;-73
2022/06/27 07:11:21;;;;;;;5.90;3.37;;;;;;;;;;4943234;28;20214;-75
2022/06/27 07:13:49;;;;;;;4.63;3.30;;;;;;;;;;4945093;28;20234;-74
2022/06/27 07:16:18;;;;;;;4.93;3.13;;;;;;;;;;4947936;28;20321;-74
2022/06/27 07:18:46;;;;;;;4.80;3.67;;;;;;;;;;4944174;28;20218;-73
2022/06/27 07:21:14;;;;;;;6.67;3.50;;;;;;;;;;4946334;28;20238;-74
2022/06/27 07:23:42;;;;;;;4.57;3.33;;;;;;;;;;4950738;28;20234;-74
2022/06/27 07:26:10;;;;;;;5.23;3.93;;;;;;;;;;4947448;28;20199;-73
2022/06/27 07:28:38;;;;;;;5.47;3.70;;;;;;;;;;4940120;28;20262;-75
2022/06/27 07:31:08;;;;;;;4.50;3.23;;;;;;;;;;4937763;28;20217;-75
2022/06/27 07:33:36;;;;;;;4.23;3.10;;;;;;;;;;4937260;28;20254;-75
2022/06/27 07:36:04;;;;;;;3.23;2.70;;;;;;;;;;4943312;28;20589;-75
2022/06/27 07:38:32;;;;;;;5.13;2.50;;;;;;;;;;4944760;28;20205;-75
2022/06/27 07:41:00;;;;;;;4.93;2.23;;;;;;;;;;4939944;28;20217;-76
2022/06/27 07:43:27;;;;;;;3.57;2.30;;;;;;;;;;4944625;28;20201;-76
2022/06/27 07:45:56;;;;;;;3.27;2.50;;;;;;;;;;4947775;28;20210;-76
2022/06/27 07:48:23;;;;;;;3.47;2.47;;;;;;;;;;4945386;28;20237;-76
2022/06/27 07:50:51;;;;;;;2.87;2.40;;;;;;;;;;4941018;28;20211;-76
2022/06/27 07:53:19;;;;;;;3.70;2.47;;;;;;;;;;4942528;28;20206;-78
2022/06/27 07:55:49;;;;;;;3.83;2.60;;;;;;;;;;4941750;28;20309;-75
2022/06/27 07:58:19;;;;;;;4.07;2.80;;;;;;;;;;4947632;28;20293;-74
2022/06/27 08:00:47;;;;;;;4.33;2.57;;;;;;;;;;4938776;28;20621;-75
2022/06/27 08:05:56;;;;;;;3.43;2.60;;;;;;;;;;4931168;28;20212;-75
2022/06/27 08:08:24;;;;;;;3.43;2.93;;;;;;;;;;4937378;28;20237;-76
2022/06/27 08:10:52;;;;;;;3.37;2.90;;;;;;;;;;4934214;28;20266;-75
2022/06/27 08:13:20;;;;;;;5.37;2.60;;;;;;;;;;4938724;28;20297;-75
2022/06/27 08:15:48;;;;;;;3.20;2.60;;;;;;;;;;4938822;28;20212;-75
2022/06/27 08:18:15;;;;;;;3.30;2.77;;;;;;;;;;4934912;28;20211;-76
2022/06/27 08:20:44;;;;;;;3.60;2.83;;;;;;;;;;4935217;28;20822;-75
2022/06/27 08:23:12;;;;;;;5.10;2.17;;;;;;;;;;4934989;28;20209;-77
2022/06/27 08:25:41;;;;;;;3.13;2.43;;;;;;;;;;4940915;28;20227;-78
2022/06/27 08:28:09;;;;;;;4.80;2.50;;;;;;;;;;4942321;28;20211;-77
2022/06/27 08:30:37;;;;;;;4.30;2.17;;;;;;;;;;4942749;28;20262;-77
2022/06/27 08:33:05;;;;;;;4.27;2.53;;;;;;;;;;4936785;28;20230;-76
2022/06/27 08:35:32;;;;;;;3.17;2.40;;;;;;;;;;4940373;28;20660;-76
2022/06/27 08:38:00;;;;;;;2.60;2.00;;;;;;;;;;4945346;28;20258;-77
2022/06/27 08:40:28;;;;;;;5.97;2.30;;;;;;;;;;4933636;28;20199;-76
2022/06/27 08:42:56;;;;;;;3.70;2.57;;;;;;;;;;4938725;28;20203;-76
2022/06/27 08:45:25;;;;;;;3.47;2.10;;;;;;;;;;4939215;28;20226;-77
2022/06/27 08:47:58;;;;;;;4.60;2.40;;;;;;;;;;4937709;28;20292;-78
2022/06/27 08:50:26;;;;;;;4.53;2.20;;;;;;;;;;4937636;28;20203;-77
2022/06/27 08:52:58;;;;;;;2.40;1.97;;;;;;;;;;4940879;28;20207;-76
2022/06/27 08:55:25;;;;;;;3.13;2.03;;;;;;;;;;4935794;28;20241;-77
2022/06/27 08:57:53;;;;;;;3.90;2.20;;;;;;;;;;4941671;28;20230;-75
2022/06/27 09:00:22;;;;;;;3.67;2.10;;;;;;;;;;4941471;28;20682;-75
2022/06/27 09:02:49;;;;;;;3.10;2.23;;;;;;;;;;4938121;28;20337;-76
2022/06/27 09:05:24;;;;;;;4.37;2.33;;;;;;;;;;4944069;28;20789;-75
2022/06/27 09:07:52;;;;;;;5.50;2.33;;;;;;;;;;4939031;28;20674;-76
2022/06/27 09:10:24;;;;;;;3.30;2.37;;;;;;;;;;4938445;28;20223;-75
2022/06/27 09:12:55;;;;;;;3.20;2.30;;;;;;;;;;4942414;28;20209;-75
2022/06/27 09:15:23;;;;;;;3.03;1.90;;;;;;;;;;4943622;28;20724;-79
2022/06/27 09:18:01;;;;;;;4.13;2.40;;;;;;;;;;4946024;28;20230;-75
2022/06/27 09:20:45;;;;;;;2.60;2.10;;;;;;;;;;4937742;28;20203;-76
2022/06/27 09:23:27;;;;;;;4.90;2.60;;;;;;;;;;4941912;28;20748;-75
2022/06/27 09:25:59;;;;;;;2.87;2.20;;;;;;;;;;4943898;28;20203;-76
2022/06/27 09:28:37;;;;;;;4.60;2.40;;;;;;;;;;4942464;28;20202;-77
2022/06/27 09:31:04;;;;;;;3.03;2.30;;;;;;;;;;4938320;28;20210;-75
2022/06/27 09:33:32;;;;;;;5.53;2.50;;;;;;;;;;4936159;28;20204;-75
2022/06/27 09:36:09;;;;;;;3.63;2.43;;;;;;;;;;4942071;28;20202;-76
2022/06/27 09:38:40;;;;;;;3.40;2.37;;;;;;;;;;4940955;28;20210;-75
2022/06/27 09:41:08;;;;;;;2.17;1.97;;;;;;;;;;4943578;28;20297;-75
2022/06/27 09:43:35;;;;;;;2.83;2.10;;;;;;;;;;4943796;28;20226;-75
2022/06/27 09:46:04;;;;;;;9.23;2.37;;;;;;;;;;4945077;28;20275;-76
2022/06/27 09:48:32;;;;;;;6.00;2.20;;;;;;;;;;4942576;28;20289;-78
2022/06/27 09:51:01;;;;;;;4.13;2.00;;;;;;;;;;4943390;28;20238;-75
2022/06/27 09:53:28;;;;;;;2.40;2.10;;;;;;;;;;4939680;28;20209;-76
2022/06/27 09:55:56;;;;;;;5.53;2.30;;;;;;;;;;4941773;28;20207;-75
2022/06/27 09:58:24;;;;;;;3.40;1.70;;;;;;;;;;4937876;28;20230;-75
2022/06/27 10:00:51;;;;;;;3.33;2.00;;;;;;;;;;4938619;28;20306;-75
2022/06/27 10:03:18;;;;;;;3.80;2.00;;;;;;;;;;4944524;28;20204;-78
2022/06/27 10:05:47;;;;;;;3.53;2.00;;;;;;;;;;4949185;28;20219;-75
2022/06/27 10:08:16;;;;;;;3.70;2.17;;;;;;;;;;4946568;28;20250;-75
2022/06/27 10:11:01;;;;;;;4.90;2.40;;;;;;;;;;4941377;28;20211;-75
2022/06/27 10:13:29;;;;;;;3.07;1.93;;;;;;;;;;4936160;28;20285;-75
2022/06/27 10:15:58;;;;;;;5.67;2.30;;;;;;;;;;4938250;28;20669;-75
2022/06/27 10:18:25;;;;;;;4.73;2.60;;;;;;;;;;4937065;28;20685;-74
2022/06/27 10:20:53;;;;;;;3.33;2.43;;;;;;;;;;4936385;28;20215;-75
2022/06/27 10:23:37;;;;;;;6.13;2.90;;;;;;;;;;4938532;28;20204;-75
2022/06/27 10:26:04;;;;;;;8.17;3.27;;;;;;;;;;4937214;28;20246;-75
2022/06/27 10:28:32;;;;;;;7.23;3.40;;;;;;;;;;4936067;28;20298;-73
2022/06/27 10:31:00;;;;;;;3.03;2.70;;;;;;;;;;4936483;28;20205;-74
2022/06/27 10:33:37;;;;;;;6.73;4.17;;;;;;;;;;4940696;28;20305;-76
2022/06/27 10:36:10;;;;;;;8.20;3.87;;;;;;;;;;4945936;28;20209;-75
2022/06/27 10:38:47;;;;;;;4.83;4.10;;;;;;;;;;4944902;28;20218;-75
2022/06/27 10:41:29;;;;;;;5.17;4.43;;;;;;;;;;4943997;28;20676;-75
2022/06/27 10:43:57;;;;;;;7.33;4.30;;;;;;;;;;4941919;28;20740;-74
2022/06/27 10:46:45;;;;;;;6.53;4.43;;;;;;;;;;4941369;28;20203;-75
2022/06/27 10:49:19;;;;;;;5.50;4.50;;;;;;;;;;4942817;28;20217;-76
2022/06/27 10:51:46;;;;;;;6.30;4.43;;;;;;;;;;4939953;28;20296;-76
2022/06/27 10:54:15;;;;;;;6.40;4.77;;;;;;;;;;4940880;28;20763;-74
2022/06/27 10:56:44;;;;;;;6.53;4.37;;;;;;;;;;4942240;28;20320;-76
2022/06/27 10:59:27;;;;;;;9.90;4.70;;;;;;;;;;4937515;28;20293;-74
2022/06/27 11:02:09;;;;;;;6.53;4.33;;;;;;;;;;4937777;28;20297;-76
2022/06/27 11:04:36;;;;;;;7.93;4.80;;;;;;;;;;4937676;28;20396;-76
2022/06/27 11:07:06;;;;;;;6.33;4.40;;;;;;;;;;4941427;28;20237;-75
2022/06/27 11:09:38;;;;;;;7.33;3.83;;;;;;;;;;4939251;28;20908;-76
2022/06/27 11:12:05;;;;;;;6.53;3.97;;;;;;;;;;4943583;28;20249;-74
2022/06/27 11:14:43;;;;;;;4.30;3.77;;;;;;;;;;4940622;28;20320;-75
2022/06/27 11:17:25;;;;;;;6.67;4.00;;;;;;;;;;4940934;28;20305;-76
2022/06/27 11:20:07;;;;;;;5.93;4.40;;;;;;;;;;4941628;28;20293;-75
2022/06/27 11:22:37;;;;;;;8.33;4.17;;;;;;;;;;4937270;28;20211;-75
2022/06/27 11:25:06;;;;;;;7.07;4.40;;;;;;;;;;4943718;28;20258;-75
2022/06/27 11:27:50;;;;;;;5.77;4.80;;;;;;;;;;4941712;28;20670;-75
2022/06/27 11:33:12;;;;;;;12.17;5.30;;;;;;;;;;4935749;28;20206;-76
2022/06/27 11:35:39;;;;;;;7.90;5.30;;;;;;;;;;4930797;28;20749;-74
2022/06/27 11:38:07;;;;;;;10.60;6.10;;;;;;;;;;4939130;28;20607;-77
2022/06/27 11:40:35;;;;;;;8.43;6.13;;;;;;;;;;4939414;28;20283;-75
2022/06/27 11:43:03;;;;;;;10.30;6.87;;;;;;;;;;4940107;28;20742;-75
2022/06/27 11:45:39;;;;;;;9.50;6.93;;;;;;;;;;4942414;28;20226;-74
2022/06/27 11:48:12;;;;;;;11.33;7.87;;;;;;;;;;4940296;28;20202;-74
2022/06/27 11:50:39;;;;;;;9.70;7.90;;;;;;;;;;4939176;28;20329;-74
2022/06/27 11:53:06;;;;;;;13.23;8.60;;;;;;;;;;4939645;28;20237;-76
2022/06/27 11:55:34;;;;;;;13.90;9.10;;;;;;;;;;4933138;28;20322;-74
2022/06/27 11:58:02;;;;;;;23.60;10.00;;;;;;;;;;4947248;28;20324;-75
2022/06/27 12:00:31;;;;;;;13.53;9.60;;;;;;;;;;4936842;28;20202;-75
2022/06/27 12:03:04;;;;;;;15.80;9.43;;;;;;;;;;4938375;28;20744;-77
2022/06/27 12:05:31;;;;;;;12.37;10.07;;;;;;;;;;4936092;28;20245;-75
2022/06/27 12:07:59;;;;;;;13.73;10.23;;;;;;;;;;4938128;28;20217;-76
2022/06/27 12:10:39;;;;;;;14.53;10.33;;;;;;;;;;4936628;28;20203;-77
2022/06/27 12:13:09;;;;;;;11.77;9.57;;;;;;;;;;4939360;28;20214;-75
2022/06/27 12:15:37;;;;;;;15.37;11.17;;;;;;;;;;4940173;28;20721;-76
2022/06/27 12:18:05;;;;;;;14.13;11.17;;;;;;;;;;4942970;28;20223;-75
2022/06/27 12:20:33;;;;;;;18.90;11.73;;;;;;;;;;4933953;28;20672;-75
2022/06/27 12:23:00;;;;;;;15.80;11.23;;;;;;;;;;4937627;28;20302;-74
2022/06/27 12:25:28;;;;;;;15.37;11.43;;;;;;;;;;4936466;28;20402;-76
2022/06/27 12:27:55;;;;;;;13.50;11.20;;;;;;;;;;4944653;28;20634;-75
2022/06/27 12:30:23;;;;;;;15.90;12.13;;;;;;;;;;4943699;28;20211;-75
2022/06/27 12:32:50;;;;;;;13.67;11.30;;;;;;;;;;4939063;28;20297;-75
2022/06/27 12:35:18;;;;;;;15.93;11.63;;;;;;;;;;4935220;28;20237;-76
2022/06/27 12:37:45;;;;;;;19.90;11.00;;;;;;;;;;4938164;28;20713;-75
2022/06/27 12:40:13;;;;;;;16.97;10.77;;;;;;;;;;4940872;28;20207;-75
2022/06/27 12:42:40;;;;;;;15.70;11.07;;;;;;;;;;4937083;28;20221;-74
2022/06/27 12:45:08;;;;;;;14.77;10.63;;;;;;;;;;4938539;28;20245;-74
2022/06/27 12:47:36;;;;;;;15.93;10.77;;;;;;;;;;4933768;28;20218;-76
2022/06/27 12:50:04;;;;;;;14.33;10.47;;;;;;;;;;4936696;28;20209;-74
2022/06/27 12:52:31;;;;;;;13.67;10.37;;;;;;;;;;4943202;28;20964;-75
2022/06/27 12:54:58;;;;;;;15.13;10.97;;;;;;;;;;4940293;28;20309;-75
2022/06/27 12:57:25;;;;;;;13.80;10.23;;;;;;;;;;4944385;28;20222;-74
2022/06/27 12:59:53;;;;;;;14.17;9.53;;;;;;;;;;4941321;28;20255;-74
2022/06/27 13:02:20;;;;;;;14.43;9.93;;;;;;;;;;4942723;28;20289;-74
2022/06/27 13:04:48;;;;;;;11.93;9.87;;;;;;;;;;4936986;28;20325;-75
2022/06/27 13:07:16;;;;;;;15.23;9.80;;;;;;;;;;4942983;28;20231;-75
2022/06/27 13:09:43;;;;;;;16.00;10.53;;;;;;;;;;4939597;28;20576;-75
2022/06/27 13:12:11;;;;;;;13.27;9.87;;;;;;;;;;4941008;28;20203;-74
2022/06/27 13:14:38;;;;;;;11.10;9.60;;;;;;;;;;4940675;28;20222;-74
2022/06/27 13:17:05;;;;;;;16.07;11.03;;;;;;;;;;4941240;28;20206;-74
2022/06/27 13:19:33;;;;;;;13.97;10.73;;;;;;;;;;4940802;28;20209;-74
2022/06/27 13:22:02;;;;;;;12.60;10.20;;;;;;;;;;4938102;28;20214;-75
2022/06/27 13:24:29;;;;;;;16.20;11.07;;;;;;;;;;4933300;28;20233;-77
2022/06/27 13:26:57;;;;;;;16.47;11.17;;;;;;;;;;4940329;28;20886;-75
2022/06/27 13:29:25;;;;;;;14.70;10.77;;;;;;;;;;4940502;28;20281;-75
2022/06/27 13:31:54;;;;;;;16.20;10.60;;;;;;;;;;4937426;28;20218;-74
2022/06/27 13:34:21;;;;;;;11.90;9.83;;;;;;;;;;4937172;28;20318;-74
2022/06/27 13:36:48;;;;;;;14.80;10.13;;;;;;;;;;4946006;28;20207;-77
2022/06/27 13:39:19;;;;;;;12.47;9.83;;;;;;;;;;4940388;28;20233;-75
2022/06/27 13:41:47;;;;;;;13.07;10.07;;;;;;;;;;4935294;28;20287;-74
2022/06/27 13:44:14;;;;;;;13.83;9.97;;;;;;;;;;4943407;28;20231;-75
2022/06/27 13:46:41;;;;;;;15.30;10.00;;;;;;;;;;4944889;28;20212;-74
2022/06/27 13:49:08;;;;;;;17.27;9.67;;;;;;;;;;4942326;28;20595;-75
2022/06/27 13:51:35;;;;;;;11.97;8.20;;;;;;;;;;4941372;28;20603;-75
2022/06/27 13:54:02;;;;;;;9.83;7.63;;;;;;;;;;4943135;28;20628;-75
2022/06/27 13:56:31;;;;;;;11.83;7.73;;;;;;;;;;4939164;28;20207;-79
2022/06/27 13:58:58;;;;;;;12.87;7.57;;;;;;;;;;4940236;28;20286;-76
2022/06/27 14:01:26;;;;;;;10.50;7.37;;;;;;;;;;4940462;28;20202;-74
2022/06/27 14:03:53;;;;;;;9.60;7.00;;;;;;;;;;4943875;28;20322;-75
2022/06/27 14:09:05;;;;;;;9.30;6.23;;;;;;;;;;4942193;28;20582;-75
2022/06/27 14:11:35;;;;;;;10.23;6.07;;;;;;;;;;4938025;28;20581;-73
2022/06/27 14:14:04;;;;;;;7.77;6.60;;;;;;;;;;4935842;28;20243;-75
2022/06/27 14:16:31;;;;;;;8.60;6.47;;;;;;;;;;4941780;28;20207;-73
2022/06/27 14:18:58;;;;;;;11.37;7.07;;;;;;;;;;4943491;28;20314;-73
2022/06/27 14:21:25;;;;;;;12.23;7.13;;;;;;;;;;4942092;28;20205;-74
2022/06/27 14:23:53;;;;;;;8.77;7.20;;;;;;;;;;4938262;28;20240;-75
2022/06/27 14:26:20;;;;;;;13.33;7.07;;;;;;;;;;4938524;28;20694;-78
2022/06/27 14:28:48;;;;;;;12.93;7.93;;;;;;;;;;4937255;28;20210;-75
2022/06/27 14:31:16;;;;;;;9.87;7.63;;;;;;;;;;4943390;28;20206;-74
2022/06/27 14:33:43;;;;;;;15.40;7.60;;;;;;;;;;4947803;28;20226;-73
2022/06/27 14:36:11;;;;;;;14.97;8.67;;;;;;;;;;4938771;28;20690;-75
2022/06/27 14:38:38;;;;;;;15.37;10.67;;;;;;;;;;4934167;28;20218;-75
2022/06/27 14:41:05;;;;;;;19.97;13.33;;;;;;;;;;4934187;28;20210;-74
2022/06/27 14:43:33;;;;;;;23.47;15.20;;;;;;;;;;4936086;28;20198;-75
2022/06/27 14:46:01;;;;;;;22.57;14.83;;;;;;;;;;4939334;28;20655;-76
2022/06/27 14:48:28;;;;;;;19.80;14.37;;;;;;;;;;4939823;28;20209;-74
2022/06/27 14:50:55;;;;;;;23.60;15.77;;;;;;;;;;4939013;28;20294;-74
2022/06/27 14:53:23;;;;;;;24.50;14.60;;;;;;;;;;4941482;28;20219;-74
2022/06/27 14:55:50;;;;;;;27.67;15.40;;;;;;;;;;4936575;28;20214;-73
2022/06/27 14:58:17;;;;;;;21.20;15.40;;;;;;;;;;4940762;28;20229;-74